Flight Track Log - Related Links

Times and Time Zones

All times are in EST time to prevent confusion due to time zone crossing. See the SKW5631 flight status page for this flight to view local times or setup timezone preferences in your user account.

Time Position Orientation Groundspeed Altitude Reporting Facility
EST Latitude Longitude Course Direction KTS MPH feet Rate Location/Type
10:40PM 37.6292 -122.3914 141° Southeast 155 178 31,000  Level Oakland Center
10:41PM 37.6511 -122.4458 297° West 194 223 2,900 -12,984 Descending Oakland Center
10:42PM 37.6461 -122.5150 265° West 225 259 4,600 2,213 Climbing Oakland Center
10:43PM 37.1933 -121.8464 138° Southeast  Level Estimated
10:43PM 37.5775 -122.4822 159° South 272 313 7,400  Level Oakland Center
10:44PM 37.0865 -121.7151 141° Southeast  Level Estimated
10:44PM 37.5061 -122.4306 150° Southeast 294 338 10,100  Level Oakland Center
10:45PM 36.9796 -121.5842 141° Southeast  Level Estimated
10:45PM 37.4339 -122.3642 144° Southeast 324 373 11,700  Level Oakland Center
10:46PM 37.3561 -122.2767 138° Southeast 373 429 13,300 1,721 Climbing Oakland Center
10:47PM 37.2744 -122.1872 139° Southeast 389 448 15,200 1,918 Climbing Oakland Center
10:48PM 37.1719 -122.0742 139° Southeast 408 470 17,200 1,623 Climbing Oakland Center
10:49PM 37.0850 -121.9778 138° Southeast 419 482 18,500 1,426 Climbing Oakland Center
10:50PM 36.9942 -121.8786 139° Southeast 433 498 20,100 1,475 Climbing Oakland Center
10:51PM 36.8986 -121.7806 141° Southeast 451 519 21,500 1,180 Climbing Oakland Center
10:52PM 36.8056 -121.6803 139° Southeast 455 524 22,500 942 Climbing Oakland Center
10:53PM 36.7075 -121.5750 139° Southeast 466 536 23,400 843 Climbing Oakland Center
10:54PM 36.6061 -121.4658 139° Southeast 482 555 24,200 836 Climbing Oakland Center
10:55PM 36.5033 -121.3539 139° Southeast 491 565 25,100 934 Climbing Oakland Center
10:56PM 36.3981 -121.2406 139° Southeast 501 577 26,100 836 Climbing Oakland Center
10:57PM 36.2933 -121.1261 139° Southeast 504 580 26,800 738 Climbing Oakland Center
10:58PM 36.1647 -120.9892 139° Southeast 508 585 27,600 639 Climbing Oakland Center
10:59PM 36.0575 -120.8750 139° Southeast 510 587 28,100 541 Climbing Oakland Center
11:00PM 35.9483 -120.7592 139° Southeast 515 593 28,700 443 Climbing Oakland Center
11:01PM 35.8403 -120.6439 139° Southeast 515 593 29,000 148 Climbing Oakland Center
11:02PM 35.7303 -120.5281 139° Southeast 521 600 29,000  Level Oakland Center
11:03PM 35.5992 -120.3908 140° Southeast 524 603 29,000  Level Los Angeles Center
11:04PM 35.4961 -120.2639 135° Southeast 522 601 29,000  Level Los Angeles Center
11:05PM 35.3936 -120.1375 135° Southeast 522 601 29,000 -976 Level Los Angeles Center
11:06PM 35.2819 -120.0017 135° Southeast 520 598 27,000 -1,984 Descending Los Angeles Center
11:07PM 35.1872 -119.8881 136° Southeast 482 555 24,900 -1,463 Descending Los Angeles Center
11:08PM 35.0972 -119.7789 135° Southeast 460 529 24,000 -1,171 Descending Los Angeles Center
11:09PM 35.0044 -119.6658 135° Southeast 469 540 22,500 -2,000 Descending Los Angeles Center
11:10PM 34.8917 -119.5294 135° Southeast 474 545 19,900 -2,244 Descending Los Angeles Center
11:11PM 34.8022 -119.4219 135° Southeast 456 525 17,900 -1,854 Descending Los Angeles Center
11:12PM 34.7147 -119.3175 136° Southeast 444 511 16,100 -1,854 Descending Los Angeles Center
11:13PM 34.6281 -119.2167 136° Southeast 433 498 14,100 -1,887 Descending Los Angeles Center
11:14PM 34.5464 -119.1233 137° Southeast 417 480 12,200 -1,512 Descending Los Angeles Center
11:16PM 34.4717 -119.0353 136° Southeast 366 421 11,000 -683 Descending Los Angeles Center
11:17PM 34.3994 -118.9369 132° Southeast 328 377 10,800 -780 Descending Los Angeles Center
11:18PM 34.3400 -118.8678 136° Southeast 296 341 9,400 -1,561 Descending Los Angeles Center
11:19PM 34.2694 -118.8250 153° Southeast 280 322 7,600 -1,512 Descending Los Angeles Center
11:20PM 34.2092 -118.7744 145° Southeast 267 307 6,300 -878 Descending Los Angeles Center
11:21PM 34.2025 -118.6972 96° East 245 282 5,800 -581 Descending Los Angeles Center
11:22PM 34.2019 -118.6300 91° East 220 253 5,100 -771 Descending Los Angeles Center
11:22PM 34.2000 -118.5667 92° East 186 214 4,400 -841 Descending Southern California TRACON
11:23PM 34.2000 -118.5167 90° East 167 192 3,600 -1,000 Descending Southern California TRACON
11:24PM 34.2000 -118.4667 90° East 147 169 2,400 -1,000 Descending Southern California TRACON
11:25PM 34.2000 -118.4167 90° East 142 163 1,600 -596 Descending Southern California TRACON
11:27PM 34.1989 -118.3567 91° East 154 177 1,000 -444 Descending Los Angeles Center

Login

Don't have an account? Register now (free) for customized features, flight alerts, and more!